createdAt,value
2023-01-09T00:01:18.696Z,100280.78
2023-01-09T00:03:46.936Z,100273.22
2023-01-09T00:06:14.663Z,100275.63
2023-01-09T00:08:42.183Z,100280.84
2023-01-09T00:11:10.138Z,100270.53
2023-01-09T00:13:38.097Z,100272.38
2023-01-09T00:16:07.049Z,100262.66
2023-01-09T00:18:35.658Z,100264.63
2023-01-09T00:21:05.175Z,100261.91
2023-01-09T00:23:32.756Z,100267.94
2023-01-09T00:26:09.413Z,100256.84
2023-01-09T00:28:37.082Z,100261.91
2023-01-09T00:31:06.865Z,100248.19
2023-01-09T00:33:39.659Z,100249.94
2023-01-09T00:36:07.891Z,100251.88
2023-01-09T00:38:37.305Z,100250.34
2023-01-09T00:41:06.687Z,100245.91
2023-01-09T00:43:39.474Z,100255.34
2023-01-09T00:46:08.349Z,100246.00
2023-01-09T00:48:39.189Z,100251.03
2023-01-09T00:51:08.262Z,100266.72
2023-01-09T00:53:37.716Z,100254.50
2023-01-09T00:56:07.854Z,100254.66
2023-01-09T00:58:36.101Z,100251.34
2023-01-09T01:01:03.968Z,100253.81
2023-01-09T01:03:31.929Z,100244.44
2023-01-09T01:06:18.391Z,100248.38
2023-01-09T01:08:46.536Z,100245.69
2023-01-09T01:11:14.421Z,100232.97
2023-01-09T01:13:41.955Z,100246.22
2023-01-09T01:16:12.176Z,100246.16
2023-01-09T01:18:40.396Z,100241.91
2023-01-09T01:21:09.404Z,100246.22
2023-01-09T01:23:37.994Z,100227.97
2023-01-09T01:26:11.314Z,100227.97
2023-01-09T01:28:39.364Z,100232.34
2023-01-09T01:31:07.646Z,100231.59
2023-01-09T01:33:35.368Z,100232.50
2023-01-09T01:36:08.382Z,100219.19
2023-01-09T01:38:36.624Z,100221.53
2023-01-09T01:41:04.767Z,100207.50
2023-01-09T01:43:55.083Z,100213.72
2023-01-09T01:46:23.134Z,100211.16
2023-01-09T01:48:54.568Z,100203.47
2023-01-09T01:51:23.761Z,100201.94
2023-01-09T01:53:54.351Z,100190.63
2023-01-09T01:56:28.674Z,100181.19
2023-01-09T01:59:06.349Z,100178.94
2023-01-09T02:01:34.271Z,100172.25
2023-01-09T02:04:02.473Z,100181.81
2023-01-09T02:06:30.894Z,100180.25
2023-01-09T02:08:58.698Z,100167.28
2023-01-09T02:11:27.259Z,100165.03
2023-01-09T02:13:55.273Z,100161.56
2023-01-09T02:16:48.330Z,100160.03
2023-01-09T02:19:28.772Z,100150.53
2023-01-09T02:22:37.759Z,100146.88
2023-01-09T02:25:27.414Z,100144.41
2023-01-09T02:28:32.732Z,100143.56
2023-01-09T02:31:11.281Z,100158.78
2023-01-09T02:34:02.959Z,100137.25
2023-01-09T02:36:49.629Z,100138.03
2023-01-09T02:39:33.059Z,100136.53
2023-01-09T02:42:05.918Z,100136.41
2023-01-09T02:44:36.171Z,100140.28
2023-01-09T02:47:29.408Z,100135.72
2023-01-09T02:50:00.813Z,100115.00
2023-01-09T02:52:45.351Z,100127.12
2023-01-09T02:55:27.961Z,100114.16
2023-01-09T02:58:10.686Z,100095.03
2023-01-09T03:01:25.960Z,100099.25
2023-01-09T03:04:20.936Z,100095.81
2023-01-09T03:07:01.171Z,100088.84
2023-01-09T03:09:33.259Z,100083.75
2023-01-09T03:12:14.692Z,100084.59
2023-01-09T03:14:45.946Z,100087.34
2023-01-09T03:17:16.824Z,100081.94
2023-01-09T03:19:45.589Z,100073.22
2023-01-09T03:22:13.603Z,100059.41
2023-01-09T03:24:41.135Z,100069.81
2023-01-09T03:27:09.531Z,100054.37
2023-01-09T03:29:37.595Z,100062.19
2023-01-09T03:32:05.373Z,100062.31
2023-01-09T03:34:33.209Z,100070.00
2023-01-09T03:37:01.797Z,100069.12
2023-01-09T03:39:29.377Z,100058.09
2023-01-09T03:41:57.380Z,100059.72
2023-01-09T03:44:25.107Z,100053.66
2023-01-09T03:46:52.621Z,100056.31
2023-01-09T03:49:21.667Z,100048.50
2023-01-09T03:51:49.207Z,100058.09
2023-01-09T03:54:16.751Z,100057.25
2023-01-09T03:56:44.522Z,100053.87
2023-01-09T03:59:12.039Z,100062.75
2023-01-09T04:01:39.812Z,100059.09
2023-01-09T04:04:07.727Z,100060.84
2023-01-09T04:06:35.296Z,100049.53
2023-01-09T04:09:03.073Z,100052.06
2023-01-09T04:11:31.002Z,100046.91
2023-01-09T04:13:58.536Z,100045.94
2023-01-09T04:16:26.106Z,100046.63
2023-01-09T04:18:53.987Z,100037.03
2023-01-09T04:21:21.615Z,100046.53
2023-01-09T04:23:49.147Z,100041.28
2023-01-09T04:26:16.979Z,100032.63
2023-01-09T04:28:44.619Z,100038.66
2023-01-09T04:31:12.182Z,100030.06
2023-01-09T04:33:44.113Z,100023.19
2023-01-09T04:36:11.850Z,100036.13
2023-01-09T04:38:39.533Z,100034.44
2023-01-09T04:41:07.756Z,100025.03
2023-01-09T04:43:35.270Z,100024.19
2023-01-09T04:46:03.458Z,100037.13
2023-01-09T04:48:31.364Z,100038.88
2023-01-09T04:50:58.890Z,100035.41
2023-01-09T04:53:26.448Z,100034.53
2023-01-09T04:55:54.277Z,100033.66
2023-01-09T04:58:21.913Z,100030.22
2023-01-09T05:00:50.172Z,100026.78
2023-01-09T05:03:18.242Z,100005.91
2023-01-09T05:05:45.715Z,100008.50
2023-01-09T05:08:13.244Z,100004.19
2023-01-09T05:10:41.166Z,100019.81
2023-01-09T05:13:08.728Z,100017.22
2023-01-09T05:15:36.273Z,100012.00
2023-01-09T05:18:04.092Z,100003.28
2023-01-09T05:20:31.646Z,100009.38
2023-01-09T05:22:59.180Z,100002.31
2023-01-09T05:25:27.018Z,99996.16
2023-01-09T05:27:54.530Z,99992.63
2023-01-09T05:30:22.093Z,99992.50
2023-01-09T05:32:49.822Z,99988.97
2023-01-09T05:35:17.366Z,99982.00
2023-01-09T05:37:45.303Z,99992.31
2023-01-09T05:40:14.190Z,99987.03
2023-01-09T05:42:44.190Z,99978.37
2023-01-09T05:45:12.125Z,99979.16
2023-01-09T05:47:40.432Z,99968.81
2023-01-09T05:50:08.587Z,99971.34
2023-01-09T05:52:36.193Z,99973.00
2023-01-09T05:55:05.904Z,99964.22
2023-01-09T05:57:33.853Z,99965.84
2023-01-09T06:00:01.349Z,99959.84
2023-01-09T06:02:29.103Z,99965.81
2023-01-09T06:04:57.027Z,99956.16
2023-01-09T06:07:24.620Z,99958.69
2023-01-09T06:09:52.252Z,99950.06
2023-01-09T06:12:20.180Z,99959.38
2023-01-09T06:14:47.777Z,99960.34
2023-01-09T06:17:15.330Z,99951.62
2023-01-09T06:19:43.303Z,99943.84
2023-01-09T06:22:11.028Z,99939.69
2023-01-09T06:24:38.537Z,99945.66
2023-01-09T06:27:06.809Z,99936.03
2023-01-09T06:29:34.251Z,99950.03
2023-01-09T06:32:01.762Z,99956.06
2023-01-09T06:34:29.630Z,99947.56
2023-01-09T06:36:57.391Z,99941.38
2023-01-09T06:39:25.193Z,99947.50
2023-01-09T06:41:53.132Z,99947.34
2023-01-09T06:44:20.727Z,99950.03
2023-01-09T06:46:48.295Z,99954.25
2023-01-09T06:49:18.085Z,99938.00
2023-01-09T06:51:45.894Z,99943.97
2023-01-09T06:54:13.568Z,99943.13
2023-01-09T06:56:41.449Z,99944.91
2023-01-09T06:59:09.777Z,99948.31
2023-01-09T07:01:39.929Z,99939.59
2023-01-09T07:04:10.358Z,99927.25
2023-01-09T07:06:38.434Z,99921.91
2023-01-09T07:09:06.320Z,99926.19
2023-01-09T07:11:34.229Z,99923.50
2023-01-09T07:14:02.195Z,99919.84
2023-01-09T07:16:30.068Z,99918.84
2023-01-09T07:18:57.872Z,99919.47
2023-01-09T07:21:25.574Z,99908.25
2023-01-09T07:23:53.402Z,99914.22
2023-01-09T07:26:21.286Z,99917.56
2023-01-09T07:28:49.132Z,99924.25
2023-01-09T07:31:16.900Z,99920.69
2023-01-09T07:33:44.875Z,99919.75
2023-01-09T07:36:12.494Z,99918.78
2023-01-09T07:38:40.413Z,99919.59
2023-01-09T07:41:10.689Z,99917.72
2023-01-09T07:43:38.995Z,99906.31
2023-01-09T07:46:06.788Z,99914.81
2023-01-09T07:48:34.792Z,99914.81
2023-01-09T07:51:02.383Z,99905.03
2023-01-09T07:53:29.903Z,99904.25
2023-01-09T07:55:57.823Z,99916.13
2023-01-09T07:58:25.488Z,99911.72
2023-01-09T08:00:53.141Z,99908.13
2023-01-09T08:03:21.023Z,99910.75
2023-01-09T08:05:51.264Z,99914.22
2023-01-09T08:08:19.141Z,99911.63
2023-01-09T08:10:47.120Z,99919.38
2023-01-09T08:13:14.735Z,99923.66
2023-01-09T08:15:42.494Z,99909.97
2023-01-09T08:18:10.777Z,99934.88
2023-01-09T08:20:38.333Z,99939.16
2023-01-09T08:23:05.867Z,99948.75
2023-01-09T08:25:33.705Z,99941.66
2023-01-09T08:28:01.499Z,99948.50
2023-01-09T08:30:29.902Z,99936.12
2023-01-09T08:32:57.735Z,99938.63
2023-01-09T08:35:25.480Z,99939.94
2023-01-09T08:37:54.871Z,99942.66
2023-01-09T08:40:23.169Z,99937.34
2023-01-09T08:43:09.411Z,99935.56
2023-01-09T08:45:55.430Z,99927.63
2023-01-09T08:48:23.057Z,99927.75
2023-01-09T08:50:51.111Z,99936.94
2023-01-09T08:53:18.718Z,99911.78
2023-01-09T08:55:46.244Z,99918.88
2023-01-09T08:58:14.326Z,99953.34
2023-01-09T09:00:42.343Z,99937.69
2023-01-09T09:03:11.800Z,99942.94
2023-01-09T09:05:39.776Z,99941.25
2023-01-09T09:08:07.487Z,99938.88
2023-01-09T09:10:35.122Z,99951.59
2023-01-09T09:13:03.102Z,99930.31
2023-01-09T09:15:30.869Z,99936.94
2023-01-09T09:18:03.402Z,99926.63
2023-01-09T09:20:34.160Z,99912.34
2023-01-09T09:23:01.963Z,99905.84
2023-01-09T09:25:29.829Z,99909.69
2023-01-09T09:27:58.065Z,99914.84
2023-01-09T09:30:26.193Z,99912.19
2023-01-09T09:32:57.800Z,99903.44
2023-01-09T09:35:25.447Z,99899.00
2023-01-09T09:37:57.911Z,99898.94
2023-01-09T09:41:05.187Z,99879.91
2023-01-09T09:43:57.530Z,99886.69
2023-01-09T09:46:43.712Z,99884.44
2023-01-09T09:49:50.054Z,99883.19
2023-01-09T09:52:42.231Z,99867.62
2023-01-09T09:55:38.482Z,99859.94
2023-01-09T09:58:21.908Z,99863.25
2023-01-09T10:00:50.405Z,99852.22
2023-01-09T10:03:52.676Z,99853.81
2023-01-09T10:06:47.729Z,99851.38
2023-01-09T10:09:46.175Z,99847.84
2023-01-09T10:12:27.450Z,99844.38
2023-01-09T10:14:59.894Z,99844.41
2023-01-09T10:17:41.392Z,99840.75
2023-01-09T10:20:24.691Z,99834.78
2023-01-09T10:23:14.972Z,99843.22
2023-01-09T10:25:46.607Z,99828.88
2023-01-09T10:28:40.284Z,99823.50
2023-01-09T10:31:18.128Z,99812.72
2023-01-09T10:34:02.030Z,99817.59
2023-01-09T10:36:43.159Z,99805.53
2023-01-09T10:39:17.856Z,99794.81
2023-01-09T10:42:04.221Z,99792.69
2023-01-09T10:44:39.052Z,99781.94
2023-01-09T10:47:20.592Z,99780.66
2023-01-09T10:49:50.280Z,99772.56
2023-01-09T10:52:20.722Z,99765.25
2023-01-09T10:55:04.177Z,99757.37
2023-01-09T10:57:54.218Z,99748.50
2023-01-09T11:00:24.082Z,99742.03
2023-01-09T11:02:53.438Z,99735.06
2023-01-09T11:05:23.679Z,99733.28
2023-01-09T11:07:56.037Z,99718.41
2023-01-09T11:10:44.919Z,99714.03
2023-01-09T11:13:21.831Z,99713.09
2023-01-09T11:16:17.993Z,99700.12
2023-01-09T11:18:55.766Z,99692.09
2023-01-09T11:21:33.200Z,99675.91
2023-01-09T11:24:19.002Z,99684.16
2023-01-09T11:27:13.454Z,99691.03
2023-01-09T11:29:41.743Z,99683.91
2023-01-09T11:32:25.232Z,99682.84
2023-01-09T11:35:17.709Z,99683.56
2023-01-09T11:37:52.372Z,99660.22
2023-01-09T11:40:58.976Z,99671.91
2023-01-09T11:43:41.086Z,99675.31
2023-01-09T11:46:30.965Z,99668.22
2023-01-09T11:49:01.025Z,99656.81
2023-01-09T11:51:34.282Z,99647.19
2023-01-09T11:54:02.238Z,99655.81
2023-01-09T11:56:30.025Z,99660.97
2023-01-09T11:58:59.793Z,99660.00
2023-01-09T12:01:49.787Z,99667.84
2023-01-09T12:04:56.844Z,99655.66
2023-01-09T12:07:55.087Z,99650.87
2023-01-09T12:10:49.847Z,99647.06
2023-01-09T12:13:54.781Z,99650.53
2023-01-09T12:17:12.652Z,99646.06
2023-01-09T12:20:13.651Z,99653.97
2023-01-09T12:23:18.460Z,99645.34
2023-01-09T12:26:06.927Z,99646.50
2023-01-09T12:28:52.026Z,99652.34
2023-01-09T12:31:39.049Z,99650.66
2023-01-09T12:34:20.940Z,99629.81
2023-01-09T12:37:20.423Z,99623.66
2023-01-09T12:40:13.833Z,99608.03
2023-01-09T12:42:59.892Z,99607.16
2023-01-09T12:45:31.634Z,99600.19
2023-01-09T12:48:21.090Z,99596.13
2023-01-09T12:51:09.882Z,99585.25
2023-01-09T12:53:57.537Z,99588.50
2023-01-09T12:56:31.244Z,99580.66
2023-01-09T12:59:32.214Z,99573.66
2023-01-09T13:02:21.924Z,99574.72
2023-01-09T13:04:59.749Z,99566.03
2023-01-09T13:07:36.179Z,99573.75
2023-01-09T13:10:16.363Z,99580.78
2023-01-09T13:12:45.237Z,99574.59
2023-01-09T13:15:32.269Z,99578.81
2023-01-09T13:18:14.554Z,99584.88
2023-01-09T13:20:45.355Z,99587.50
2023-01-09T13:23:47.179Z,99582.34
2023-01-09T13:26:26.689Z,99579.16
2023-01-09T13:29:00.656Z,99575.47
2023-01-09T13:31:38.884Z,99576.50
2023-01-09T13:34:21.508Z,99579.88
2023-01-09T13:36:54.440Z,99569.41
2023-01-09T13:39:27.650Z,99574.59
2023-01-09T13:42:23.728Z,99567.59
2023-01-09T13:44:54.826Z,99581.63
2023-01-09T13:47:28.351Z,99567.81
2023-01-09T13:50:21.238Z,99571.41
2023-01-09T13:52:49.451Z,99574.09
2023-01-09T13:55:17.519Z,99576.53
2023-01-09T13:58:08.646Z,99571.41
2023-01-09T14:00:36.420Z,99562.72
2023-01-09T14:03:26.232Z,99553.97
2023-01-09T14:05:54.283Z,99538.63
2023-01-09T14:08:23.957Z,99538.38
2023-01-09T14:11:01.126Z,99534.19
2023-01-09T14:13:39.352Z,99526.28
2023-01-09T14:16:20.604Z,99528.19
2023-01-09T14:19:04.978Z,99519.38
2023-01-09T14:21:52.834Z,99516.97
2023-01-09T14:24:52.595Z,99521.13
2023-01-09T14:28:03.447Z,99512.50
2023-01-09T14:30:49.865Z,99499.63
2023-01-09T14:33:17.532Z,99502.12
2023-01-09T14:35:51.521Z,99501.34
2023-01-09T14:38:32.628Z,99501.53
2023-01-09T14:41:15.621Z,99501.44
2023-01-09T14:43:54.316Z,99500.38
2023-01-09T14:46:22.476Z,99491.78
2023-01-09T14:49:30.517Z,99484.84
2023-01-09T14:52:01.187Z,99483.94
2023-01-09T14:54:33.215Z,99476.38
2023-01-09T14:57:03.949Z,99475.31
2023-01-09T14:59:31.586Z,99457.16
2023-01-09T15:01:59.563Z,99461.63
2023-01-09T15:04:38.850Z,99462.47
2023-01-09T15:07:06.699Z,99458.09
2023-01-09T15:09:43.838Z,99465.16
2023-01-09T15:12:22.129Z,99466.00
2023-01-09T15:14:55.948Z,99470.75
2023-01-09T15:17:29.011Z,99472.22
2023-01-09T15:19:58.483Z,99459.16
2023-01-09T15:22:30.156Z,99462.63
2023-01-09T15:24:59.412Z,99457.38
2023-01-09T15:27:27.042Z,99446.00
2023-01-09T15:29:54.567Z,99453.94
2023-01-09T15:32:27.512Z,99441.72
2023-01-09T15:34:56.083Z,99442.63
2023-01-09T15:37:30.061Z,99441.72
2023-01-09T15:39:59.978Z,99434.19
2023-01-09T15:42:49.471Z,99428.03
2023-01-09T15:45:26.516Z,99435.78
2023-01-09T15:47:55.171Z,99442.88
2023-01-09T15:50:28.029Z,99433.34
2023-01-09T15:52:56.520Z,99431.09
2023-01-09T15:55:35.477Z,99436.00
2023-01-09T15:58:05.274Z,99430.03
2023-01-09T16:00:36.277Z,99434.59
2023-01-09T16:03:16.850Z,99430.75
2023-01-09T16:05:47.439Z,99435.75
2023-01-09T16:08:20.874Z,99428.22
2023-01-09T16:10:57.558Z,99431.59
2023-01-09T16:13:27.971Z,99417.84
2023-01-09T16:15:56.303Z,99423.69
2023-01-09T16:18:32.657Z,99429.00
2023-01-09T16:21:22.727Z,99414.16
2023-01-09T16:23:55.544Z,99414.25
2023-01-09T16:26:25.500Z,99404.78
2023-01-09T16:28:54.225Z,99411.06
2023-01-09T16:31:27.457Z,99411.16
2023-01-09T16:34:06.464Z,99403.38
2023-01-09T16:36:35.179Z,99410.22
2023-01-09T16:39:06.775Z,99406.81
2023-01-09T16:42:01.568Z,99405.94
2023-01-09T16:44:29.355Z,99403.31
2023-01-09T16:46:57.291Z,99397.19
2023-01-09T16:49:29.387Z,99399.00
2023-01-09T16:51:57.419Z,99400.72
2023-01-09T16:54:24.938Z,99398.09
2023-01-09T16:56:53.596Z,99382.34
2023-01-09T16:59:26.317Z,99384.22
2023-01-09T17:01:54.333Z,99378.91
2023-01-09T17:04:26.916Z,99381.78
2023-01-09T17:06:54.396Z,99385.94
2023-01-09T17:09:27.639Z,99389.44
2023-01-09T17:11:55.435Z,99382.66
2023-01-09T17:14:23.234Z,99379.12
2023-01-09T17:16:50.843Z,99374.03
2023-01-09T17:19:20.871Z,99371.34
2023-01-09T17:21:48.690Z,99376.72
2023-01-09T17:24:35.017Z,99374.19
2023-01-09T17:27:22.115Z,99368.25
2023-01-09T17:29:49.703Z,99381.13
2023-01-09T17:32:19.212Z,99374.13
2023-01-09T17:34:47.113Z,99380.41
2023-01-09T17:37:16.047Z,99364.03
2023-01-09T17:39:44.844Z,99383.06
2023-01-09T17:42:12.662Z,99384.84
2023-01-09T17:44:40.295Z,99382.31
2023-01-09T17:47:14.923Z,99372.09
2023-01-09T17:49:42.633Z,99379.97
2023-01-09T17:52:10.600Z,99399.03
2023-01-09T17:54:38.585Z,99404.31
2023-01-09T17:57:07.510Z,99421.41
2023-01-09T17:59:35.636Z,99413.41
2023-01-09T18:02:03.235Z,99417.88
2023-01-09T18:04:31.149Z,99411.59
2023-01-09T18:06:58.611Z,99409.00
2023-01-09T18:09:26.228Z,99402.94
2023-01-09T18:11:54.130Z,99407.56
2023-01-09T18:14:21.949Z,99409.34
2023-01-09T18:16:49.597Z,99386.78
2023-01-09T18:19:17.517Z,99378.97
2023-01-09T18:21:46.860Z,99366.19
2023-01-09T18:24:14.422Z,99380.16
2023-01-09T18:26:42.371Z,99372.41
2023-01-09T18:29:11.468Z,99363.03
2023-01-09T18:31:39.799Z,99359.53
2023-01-09T18:34:09.145Z,99362.31
2023-01-09T18:36:36.843Z,99362.38
2023-01-09T18:39:05.530Z,99370.28
2023-01-09T18:41:33.575Z,99365.06
2023-01-09T18:44:01.753Z,99359.91
2023-01-09T18:46:32.469Z,99359.09
2023-01-09T18:49:04.323Z,99357.41
2023-01-09T18:51:34.203Z,99354.03
2023-01-09T18:54:02.318Z,99351.38
2023-01-09T18:56:30.139Z,99353.09
2023-01-09T18:58:58.262Z,99351.41
2023-01-09T19:01:28.224Z,99343.66
2023-01-09T19:03:57.358Z,99345.44
2023-01-09T19:06:26.187Z,99344.16
2023-01-09T19:08:55.003Z,99336.13
2023-01-09T19:11:24.254Z,99331.94
2023-01-09T19:13:52.002Z,99328.38
2023-01-09T19:16:20.105Z,99329.28
2023-01-09T19:18:48.216Z,99324.22
2023-01-09T19:21:19.203Z,99321.59
2023-01-09T19:23:47.977Z,99313.88
2023-01-09T19:26:21.504Z,99313.28
2023-01-09T19:28:51.852Z,99312.38
2023-01-09T19:31:22.841Z,99303.00
2023-01-09T19:33:51.875Z,99295.03
2023-01-09T19:36:19.912Z,99284.69
2023-01-09T19:38:47.934Z,99291.63
2023-01-09T19:41:19.454Z,99294.25
2023-01-09T19:43:47.825Z,99297.06
2023-01-09T19:46:18.559Z,99293.56
2023-01-09T19:48:47.490Z,99283.53
2023-01-09T19:51:17.996Z,99290.16
2023-01-09T19:53:51.373Z,99283.28
2023-01-09T19:56:22.201Z,99278.13
2023-01-09T19:59:03.852Z,99285.88
2023-01-09T20:01:35.254Z,99272.84
2023-01-09T20:04:07.846Z,99274.81
2023-01-09T20:06:36.138Z,99275.59
2023-01-09T20:09:05.160Z,99277.47
2023-01-09T20:11:33.801Z,99278.28
2023-01-09T20:14:01.416Z,99273.06
2023-01-09T20:16:30.636Z,99281.84
2023-01-09T20:19:00.439Z,99282.81
2023-01-09T20:21:29.192Z,99280.16
2023-01-09T20:23:59.689Z,99279.53
2023-01-09T20:26:28.725Z,99282.81
2023-01-09T20:28:57.213Z,99285.44
2023-01-09T20:31:28.184Z,99284.69
2023-01-09T20:33:55.952Z,99283.87
2023-01-09T20:36:27.977Z,99269.03
2023-01-09T20:39:01.268Z,99266.50
2023-01-09T20:41:31.414Z,99259.59
2023-01-09T20:44:07.000Z,99252.59
2023-01-09T20:46:38.189Z,99250.88
2023-01-09T20:49:07.623Z,99246.50
2023-01-09T20:51:36.101Z,99240.63
2023-01-09T20:54:04.143Z,99245.00
2023-01-09T20:56:32.236Z,99238.09
2023-01-09T20:59:00.290Z,99236.34
2023-01-09T21:01:28.548Z,99238.59
2023-01-09T21:03:58.063Z,99240.38
2023-01-09T21:06:26.246Z,99237.88
2023-01-09T21:08:53.999Z,99229.09
2023-01-09T21:11:22.211Z,99228.16
2023-01-09T21:13:50.063Z,99225.88
2023-01-09T21:16:21.496Z,99230.91
2023-01-09T21:18:49.937Z,99231.69
2023-01-09T21:21:23.391Z,99229.84
2023-01-09T21:23:53.812Z,99220.34
2023-01-09T21:26:24.858Z,99215.13
2023-01-09T21:28:55.080Z,99219.38
2023-01-09T21:31:33.105Z,99223.66
2023-01-09T21:34:03.766Z,99222.69
2023-01-09T21:36:31.691Z,99226.97
2023-01-09T21:39:01.162Z,99219.16
2023-01-09T21:41:49.205Z,99211.34
2023-01-09T21:44:35.040Z,99205.41
2023-01-09T21:47:03.274Z,99207.66
2023-01-09T21:49:34.999Z,99211.81
2023-01-09T21:52:06.019Z,99213.50
2023-01-09T21:54:34.133Z,99205.78
2023-01-09T21:57:02.102Z,99205.59
2023-01-09T21:59:33.355Z,99210.44
2023-01-09T22:02:00.878Z,99208.69
2023-01-09T22:04:29.244Z,99206.94
2023-01-09T22:06:57.109Z,99194.81
2023-01-09T22:09:24.814Z,99191.50
2023-01-09T22:11:52.735Z,99200.13
2023-01-09T22:14:20.602Z,99207.94
2023-01-09T22:16:48.475Z,99199.28
2023-01-09T22:19:19.828Z,99191.44
2023-01-09T22:21:47.897Z,99188.97
2023-01-09T22:24:17.631Z,99188.97
2023-01-09T22:26:45.614Z,99189.81
2023-01-09T22:29:13.716Z,99183.84
2023-01-09T22:31:43.094Z,99179.38
2023-01-09T22:34:14.844Z,99179.34
2023-01-09T22:36:43.903Z,99181.06
2023-01-09T22:39:13.482Z,99187.22
2023-01-09T22:41:41.625Z,99185.44
2023-01-09T22:44:10.820Z,99184.59
2023-01-09T22:46:39.239Z,99184.69
2023-01-09T22:49:06.745Z,99180.44
2023-01-09T22:51:34.794Z,99175.09
2023-01-09T22:54:02.588Z,99169.19
2023-01-09T22:56:32.217Z,99177.78
2023-01-09T22:59:01.133Z,99178.63
2023-01-09T23:01:29.349Z,99187.28
2023-01-09T23:03:56.959Z,99173.47
2023-01-09T23:06:25.410Z,99178.63
2023-01-09T23:08:53.287Z,99172.63
2023-01-09T23:11:44.591Z,99169.97
2023-01-09T23:14:13.013Z,99166.44
2023-01-09T23:16:40.607Z,99159.53
2023-01-09T23:19:17.395Z,99165.50
2023-01-09T23:21:45.455Z,99161.09
2023-01-09T23:24:15.563Z,99153.47
2023-01-09T23:26:44.145Z,99155.09
2023-01-09T23:29:12.778Z,99149.97
2023-01-09T23:31:40.540Z,99143.81
2023-01-09T23:34:08.456Z,99129.25
2023-01-09T23:36:36.418Z,99138.59
2023-01-09T23:39:08.825Z,99129.00
2023-01-09T23:41:55.974Z,99129.00
2023-01-09T23:44:23.540Z,99126.31
2023-01-09T23:46:51.496Z,99124.59
2023-01-09T23:49:19.366Z,99115.00
2023-01-09T23:51:47.227Z,99109.78
2023-01-09T23:54:16.311Z,99114.91
2023-01-09T23:56:43.860Z,99107.44
2023-01-09T23:59:12.887Z,99110.63
